KDUC

Halliburton Field Airport

Duncan, Oklahoma, USA
METAR KDUC 201955Z AUTO 03012G15KT 10SM CLR 21/06 A3031 RMK AO2 T02100059
Observed Flight Rules
Oct-20 @ 19:55 UTC (23 minutes ago) Visual Flight Rules
Wind Visibility Clouds
30° at 12 knots
 Gusting to 15 knots
10 miles
  • Clear skies
Temperatures Readings
Current 21°C / 70°F
Dewpoint 6°C / 43°F
Humidity 38%
Altimeter 30.31" Hg
Pressure 1026 hPa
Elevation 339
METAR KDUC 201955Z AUTO 03012G15KT 10SM CLR 21/06 A3031 RMK AO2 T02100059
Observed Flight Rules
Oct-20 @ 19:55 UTC
(23 minutes ago)
VFR
Wind Visibility
30° at 12 knots
 Gusting to 15 knots
10 miles
Clouds
  • Clear skies
Temperature Dewpoint
21°C / 70°F 6°C / 43°F
Humidity Altimeter Pressure
38% 30.31" Hg 1026 hPa